Time;durP1;ratioP1;P1;durP2;ratioP2;P2;SDS_P1;SDS_P2;PMS_P1;PMS_P2;Temp;Humidity;BMP_temperature;BMP_pressure;BME280_temperature;BME280_humidity;BME280_pressure;Samples;Min_cycle;Max_cycle;Signal;HPM_P1;HPM_P2
2022/11/13 00:00:55;;;;;;;18.02;10.77;;;;;;;3.10;56.31;102972.06;5012204;28;21416;-72
2022/11/13 00:03:40;;;;;;;15.60;10.90;;;;;;;3.15;56.11;102961.00;5004670;28;20106;-74
2022/11/13 00:06:24;;;;;;;18.58;10.50;;;;;;;3.29;56.46;102950.16;5023260;28;20068;-73
2022/11/13 00:09:11;;;;;;;15.48;9.90;;;;;;;3.41;55.52;102941.81;5010212;28;20055;-76
2022/11/13 00:11:55;;;;;;;17.90;10.48;;;;;;;3.42;55.83;102938.38;5019583;28;20564;-76
2022/11/13 00:14:39;;;;;;;15.38;8.85;;;;;;;3.58;55.74;102943.06;5018259;28;20083;-76
2022/11/13 00:17:23;;;;;;;14.85;9.02;;;;;;;3.67;55.28;102940.69;5021868;28;20496;-75
2022/11/13 00:20:07;;;;;;;13.43;9.18;;;;;;;3.63;55.60;102937.97;5020177;28;20307;-75
2022/11/13 00:22:52;;;;;;;18.60;9.88;;;;;;;3.63;56.25;102935.41;5020891;28;20055;-76
2022/11/13 00:25:36;;;;;;;16.27;9.07;;;;;;;3.71;56.30;102936.44;5017686;28;20040;-77
2022/11/13 00:28:20;;;;;;;14.35;9.20;;;;;;;3.81;56.26;102928.06;5021281;28;20056;-76
2022/11/13 00:31:05;;;;;;;14.18;8.82;;;;;;;3.96;55.75;102928.38;5022603;28;20048;-76
2022/11/13 00:33:50;;;;;;;18.15;8.75;;;;;;;4.06;55.88;102928.56;5019521;28;20052;-75
2022/11/13 00:36:34;;;;;;;13.95;9.25;;;;;;;4.00;55.61;102925.00;5019419;28;20524;-78
2022/11/13 00:39:18;;;;;;;16.25;8.90;;;;;;;4.06;56.47;102928.56;5021046;28;20114;-76
2022/11/13 00:42:02;;;;;;;20.15;9.23;;;;;;;4.17;55.66;102921.88;5015199;28;20052;-77
2022/11/13 00:44:46;;;;;;;13.05;7.82;;;;;;;4.13;55.38;102920.06;5021173;28;20056;-75
2022/11/13 00:47:30;;;;;;;15.23;9.20;;;;;;;4.08;55.15;102924.28;5019970;28;20292;-76
2022/11/13 00:50:14;;;;;;;13.48;8.65;;;;;;;3.99;55.10;102922.41;5009847;28;20103;-77
2022/11/13 00:52:58;;;;;;;14.73;9.13;;;;;;;3.89;55.46;102916.13;5014581;28;20516;-76
2022/11/13 00:55:43;;;;;;;16.05;8.05;;;;;;;3.89;56.30;102920.44;5022874;28;20050;-75
2022/11/13 00:58:27;;;;;;;15.60;8.40;;;;;;;3.96;56.06;102912.84;5019473;28;20544;-75
2022/11/13 01:01:15;;;;;;;18.55;10.02;;;;;;;3.99;56.23;102912.91;5021097;28;20132;-75
2022/11/13 01:03:59;;;;;;;11.57;8.05;;;;;;;4.05;55.82;102916.44;5020688;28;20044;-75
2022/11/13 01:06:44;;;;;;;19.35;9.82;;;;;;;4.05;56.01;102911.28;5021087;28;20051;-74
2022/11/13 01:09:28;;;;;;;15.60;8.32;;;;;;;4.06;56.27;102905.28;5023297;28;20110;-74
2022/11/13 01:12:12;;;;;;;14.82;8.70;;;;;;;4.12;55.97;102910.53;5018605;28;20053;-73
2022/11/13 01:14:56;;;;;;;12.52;8.02;;;;;;;4.18;55.80;102913.25;5005361;28;20332;-74
2022/11/13 01:17:40;;;;;;;13.48;9.35;;;;;;;4.20;56.16;102911.56;5013454;28;20098;-74
2022/11/13 01:20:25;;;;;;;15.02;8.23;;;;;;;4.25;55.87;102903.91;5020021;28;20116;-74
2022/11/13 01:23:10;;;;;;;16.60;8.57;;;;;;;4.23;56.10;102898.72;5009051;28;20045;-77
2022/11/13 01:26:02;;;;;;;13.80;8.75;;;;;;;4.19;56.09;102896.91;5019237;28;20060;-72
2022/11/13 01:28:47;;;;;;;15.43;8.65;;;;;;;4.25;56.02;102894.41;5017689;28;20043;-74
2022/11/13 01:31:31;;;;;;;16.52;8.48;;;;;;;4.26;56.43;102882.38;5023071;28;20056;-74
2022/11/13 01:34:15;;;;;;;15.50;8.55;;;;;;;4.25;56.39;102878.88;5019094;28;20095;-73
2022/11/13 01:36:59;;;;;;;17.75;9.57;;;;;;;4.26;56.49;102874.59;5024521;28;20132;-73
2022/11/13 01:39:43;;;;;;;13.93;9.15;;;;;;;4.32;56.73;102867.81;5023409;28;20422;-73
2022/11/13 01:42:27;;;;;;;15.05;9.80;;;;;;;4.34;56.64;102868.72;5023122;28;20057;-71
2022/11/13 01:45:49;;;;;;;15.23;9.25;;;;;;;4.42;57.10;102874.88;5020634;28;20099;-70
2022/11/13 01:48:47;;;;;;;14.15;9.05;;;;;;;4.56;57.32;102858.72;5019489;28;20049;-70
2022/11/13 01:51:35;;;;;;;15.95;9.23;;;;;;;4.66;57.46;102857.16;5021990;28;20110;-77
2022/11/13 01:54:25;;;;;;;17.30;10.32;;;;;;;4.69;57.13;102860.66;5022649;28;20263;-75
2022/11/13 01:57:09;;;;;;;15.20;9.20;;;;;;;4.73;57.52;102857.28;5025698;28;20398;-76
2022/11/13 01:59:57;;;;;;;20.48;10.38;;;;;;;4.81;56.98;102850.50;5020392;28;20099;-76
2022/11/13 02:02:42;;;;;;;15.95;8.90;;;;;;;4.83;57.05;102853.09;5022903;28;20436;-76
2022/11/13 02:05:26;;;;;;;16.30;8.65;;;;;;;4.84;57.19;102850.56;5020579;28;20479;-77
2022/11/13 02:08:10;;;;;;;16.85;8.80;;;;;;;4.81;56.60;102850.50;5025184;28;20115;-76
2022/11/13 02:10:58;;;;;;;12.55;9.40;;;;;;;4.76;56.82;102851.28;4992305;28;20056;-76
2022/11/13 02:13:43;;;;;;;13.90;8.90;;;;;;;4.69;57.08;102854.63;5021054;28;20114;-76
2022/11/13 02:16:31;;;;;;;19.20;9.57;;;;;;;4.76;57.86;102852.13;5023080;28;20579;-77
2022/11/13 02:19:41;;;;;;;18.98;8.82;;;;;;;4.81;57.39;102831.47;5022114;28;20115;-76
2022/11/13 02:22:46;;;;;;;14.18;9.50;;;;;;;4.78;57.41;102841.81;5001698;28;20410;-70
2022/11/13 02:25:31;;;;;;;16.92;9.75;;;;;;;4.78;57.38;102837.50;5012822;28;20466;-71
2022/11/13 02:28:15;;;;;;;13.82;9.30;;;;;;;4.77;57.23;102830.59;5022188;28;20265;-72
2022/11/13 02:31:11;;;;;;;16.35;8.80;;;;;;;4.72;57.19;102840.00;5022625;28;20137;-71
2022/11/13 02:33:55;;;;;;;15.57;9.55;;;;;;;4.77;56.73;102840.94;5018864;28;20055;-72
2022/11/13 02:36:39;;;;;;;14.35;8.88;;;;;;;4.67;57.40;102839.03;5024309;28;20047;-73
2022/11/13 02:39:23;;;;;;;18.63;9.00;;;;;;;4.67;57.93;102844.22;5009948;28;20099;-73
2022/11/13 02:42:07;;;;;;;17.70;9.43;;;;;;;4.76;57.21;102834.00;5024394;28;20785;-73
2022/11/13 02:44:55;;;;;;;13.05;9.40;;;;;;;4.57;57.78;102832.00;5032963;28;20053;-78
2022/11/13 02:47:39;;;;;;;18.17;9.52;;;;;;;4.66;57.66;102824.38;5050631;28;20377;-79
2022/11/13 02:50:24;;;;;;;17.98;9.07;;;;;;;4.56;58.04;102814.69;5035461;28;20311;-79
2022/11/13 02:53:08;;;;;;;14.43;8.40;;;;;;;4.62;58.16;102810.47;5051805;28;20071;-79
2022/11/13 02:55:52;;;;;;;14.73;8.25;;;;;;;4.71;57.84;102802.00;5014433;28;20537;-71
2022/11/13 02:58:36;;;;;;;15.77;8.77;;;;;;;4.63;57.44;102804.47;5019630;28;20044;-71
2022/11/13 03:01:20;;;;;;;15.35;8.75;;;;;;;4.43;58.16;102801.56;5022208;28;20129;-71
2022/11/13 03:04:05;;;;;;;17.67;9.27;;;;;;;4.52;57.80;102806.03;5020243;28;20411;-71
2022/11/13 03:06:48;;;;;;;14.07;8.65;;;;;;;4.53;57.36;102802.56;5019614;28;20052;-70
2022/11/13 03:09:32;;;;;;;16.00;8.70;;;;;;;4.47;57.67;102807.63;5019032;28;20469;-73
2022/11/13 03:12:16;;;;;;;15.23;8.43;;;;;;;4.47;57.52;102801.59;5020308;28;20060;-74
2022/11/13 03:15:01;;;;;;;12.00;8.10;;;;;;;4.32;57.67;102795.34;5006001;28;20047;-74
2022/11/13 03:17:45;;;;;;;15.32;8.65;;;;;;;4.42;57.63;102794.63;5019822;28;20410;-75
2022/11/13 03:20:29;;;;;;;16.85;8.77;;;;;;;4.25;58.15;102793.47;5012666;28;20473;-74
2022/11/13 03:23:13;;;;;;;17.77;8.60;;;;;;;4.39;57.81;102793.72;5009378;28;20056;-75
2022/11/13 03:26:02;;;;;;;11.93;8.15;;;;;;;4.26;57.74;102781.41;5020281;28;20103;-75
2022/11/13 03:28:47;;;;;;;19.88;9.10;;;;;;;4.29;57.68;102777.13;5018455;28;20091;-74
2022/11/13 03:31:31;;;;;;;12.30;8.23;;;;;;;4.24;57.69;102778.78;5021319;28;20556;-74
2022/11/13 03:34:16;;;;;;;13.18;8.85;;;;;;;4.13;58.31;102781.19;5021347;28;20087;-75
2022/11/13 03:37:00;;;;;;;13.85;8.77;;;;;;;4.13;57.87;102765.66;5021608;28;20172;-74
2022/11/13 03:39:44;;;;;;;11.75;7.82;;;;;;;4.03;58.38;102768.94;5020142;28;20173;-74
2022/11/13 03:42:29;;;;;;;12.65;8.80;;;;;;;4.06;58.10;102766.41;5020711;28;20052;-75
2022/11/13 03:45:13;;;;;;;14.13;8.77;;;;;;;4.07;58.42;102764.69;5017997;28;20113;-74
2022/11/13 03:47:57;;;;;;;15.05;8.15;;;;;;;3.96;58.93;102767.06;5007892;28;20086;-75
2022/11/13 03:50:43;;;;;;;9.80;7.20;;;;;;;4.17;58.24;102757.09;5019824;28;20206;-74
2022/11/13 03:53:28;;;;;;;13.18;7.82;;;;;;;4.17;58.12;102751.94;5019842;28;20056;-74
2022/11/13 03:56:12;;;;;;;13.30;8.07;;;;;;;4.11;59.08;102758.72;5020217;28;20044;-73
2022/11/13 03:58:55;;;;;;;16.13;9.02;;;;;;;4.25;58.81;102753.75;5025065;28;21267;-72
2022/11/13 04:01:39;;;;;;;10.98;8.10;;;;;;;4.30;59.27;102755.59;5018416;28;20684;-72
2022/11/13 04:04:23;;;;;;;17.85;8.02;;;;;;;4.35;58.81;102756.53;5019159;28;20052;-72
2022/11/13 04:07:07;;;;;;;16.33;8.82;;;;;;;4.28;59.14;102749.53;5020899;28;20060;-72
2022/11/13 04:09:51;;;;;;;14.40;8.60;;;;;;;4.42;58.27;102750.59;5006022;28;20524;-73
2022/11/13 04:12:35;;;;;;;14.98;8.50;;;;;;;4.35;58.26;102743.59;5020290;28;20153;-73
2022/11/13 04:15:20;;;;;;;13.98;8.25;;;;;;;4.40;58.41;102741.94;5011504;28;20509;-69
2022/11/13 04:18:04;;;;;;;11.02;7.32;;;;;;;4.40;57.97;102749.69;5022257;28;20123;-74
2022/11/13 04:20:48;;;;;;;13.88;8.13;;;;;;;4.32;58.59;102753.91;5018351;28;20052;-73
2022/11/13 04:23:32;;;;;;;12.13;7.65;;;;;;;4.45;57.72;102744.59;5016304;28;20613;-75
2022/11/13 04:26:16;;;;;;;15.35;7.93;;;;;;;4.49;57.10;102745.53;5008924;28;20055;-73
2022/11/13 04:29:00;;;;;;;12.63;6.88;;;;;;;4.45;57.16;102748.91;5019538;28;20098;-75
2022/11/13 04:31:44;;;;;;;15.20;8.02;;;;;;;4.35;57.27;102751.34;5019812;28;20196;-75
2022/11/13 04:34:28;;;;;;;12.10;7.00;;;;;;;4.31;56.38;102748.69;5019196;28;20465;-74
2022/11/13 04:37:13;;;;;;;17.42;7.38;;;;;;;4.13;56.50;102744.94;5020040;28;20114;-74
2022/11/13 04:39:57;;;;;;;12.00;6.22;;;;;;;4.06;56.34;102743.09;5017601;28;20528;-74
2022/11/13 04:42:50;;;;;;;8.63;6.20;;;;;;;4.00;56.25;102738.69;5020806;28;20044;-74
2022/11/13 04:45:35;;;;;;;9.70;6.18;;;;;;;3.90;56.39;102741.97;5017992;28;20099;-75
2022/11/13 04:48:19;;;;;;;14.88;7.25;;;;;;;3.84;56.60;102746.16;5011553;28;20168;-75
2022/11/13 04:51:03;;;;;;;10.77;6.90;;;;;;;3.85;56.46;102738.44;5009342;28;20051;-74
2022/11/13 04:53:48;;;;;;;13.63;7.18;;;;;;;3.77;56.49;102743.47;5018030;28;20491;-75
2022/11/13 04:56:32;;;;;;;11.32;7.68;;;;;;;3.70;56.52;102740.75;5020209;28;20809;-72
2022/11/13 04:59:16;;;;;;;15.25;7.75;;;;;;;3.63;57.07;102742.34;5019869;28;20052;-70
2022/11/13 05:01:59;;;;;;;14.95;7.50;;;;;;;3.57;56.96;102740.50;5019369;28;20052;-69
2022/11/13 05:04:44;;;;;;;12.38;6.70;;;;;;;3.66;56.70;102749.28;5018841;28;20052;-70
2022/11/13 05:07:28;;;;;;;11.77;6.18;;;;;;;3.58;56.60;102743.94;5018407;28;20915;-68
2022/11/13 05:10:12;;;;;;;13.38;6.85;;;;;;;3.45;56.95;102749.72;5010619;28;20314;-69
2022/11/13 05:12:56;;;;;;;10.20;6.68;;;;;;;3.42;57.11;102749.69;5023065;28;20052;-69
2022/11/13 05:15:40;;;;;;;13.02;7.13;;;;;;;3.41;57.06;102751.41;5022433;28;20079;-71
2022/11/13 05:18:25;;;;;;;8.68;6.05;;;;;;;3.36;56.88;102747.84;5022610;28;20137;-70
2022/11/13 05:21:09;;;;;;;14.13;7.05;;;;;;;3.30;56.28;102751.16;5024544;28;20043;-71
2022/11/13 05:23:53;;;;;;;9.93;6.90;;;;;;;3.27;56.27;102755.34;5018040;28;20055;-71
2022/11/13 05:26:38;;;;;;;12.95;7.47;;;;;;;3.19;56.55;102748.31;5022619;28;20099;-72
2022/11/13 05:29:22;;;;;;;11.05;6.63;;;;;;;3.18;56.87;102741.44;5021831;28;20056;-72
2022/11/13 05:32:06;;;;;;;8.88;6.07;;;;;;;3.19;56.53;102745.75;5024120;28;20071;-72
2022/11/13 05:34:50;;;;;;;8.65;5.90;;;;;;;3.20;56.40;102749.19;5012250;28;20122;-74
2022/11/13 05:37:34;;;;;;;9.93;5.90;;;;;;;3.17;56.38;102742.25;5024717;28;20071;-72
2022/11/13 05:40:19;;;;;;;15.90;7.22;;;;;;;3.10;56.67;102739.53;5015724;28;20080;-72
2022/11/13 05:43:03;;;;;;;13.50;6.47;;;;;;;3.13;56.59;102724.94;5022947;28;20716;-71
2022/11/13 05:45:47;;;;;;;8.90;5.68;;;;;;;3.11;56.47;102736.09;5009625;28;20614;-71
2022/11/13 05:48:32;;;;;;;12.55;7.25;;;;;;;3.01;56.19;102740.19;5021400;28;20099;-71
2022/11/13 05:51:22;;;;;;;7.22;5.07;;;;;;;2.94;56.33;102728.00;5021615;28;20065;-72
2022/11/13 05:54:06;;;;;;;7.05;5.43;;;;;;;2.96;56.36;102728.91;5022706;28;20099;-71
2022/11/13 05:56:50;;;;;;;9.00;5.70;;;;;;;2.87;56.22;102736.44;5021310;28;20137;-70
2022/11/13 05:59:34;;;;;;;7.05;5.00;;;;;;;2.76;56.09;102737.06;5023353;28;20086;-68
2022/11/13 06:02:18;;;;;;;9.20;6.18;;;;;;;2.73;56.26;102731.84;5019993;28;20055;-69
2022/11/13 06:05:02;;;;;;;7.18;4.70;;;;;;;2.72;56.03;102732.66;5013788;28;20490;-73
2022/11/13 06:07:48;;;;;;;8.77;5.22;;;;;;;2.67;56.44;102736.88;5022592;28;20568;-71
2022/11/13 06:10:32;;;;;;;12.32;6.68;;;;;;;2.71;56.32;102736.09;5022696;28;20048;-70
2022/11/13 06:13:16;;;;;;;11.68;6.07;;;;;;;2.74;56.54;102728.41;5021997;28;20075;-70
2022/11/13 06:16:03;;;;;;;8.50;5.75;;;;;;;2.59;56.16;102735.81;5008562;28;20047;-70
2022/11/13 06:18:49;;;;;;;12.07;6.07;;;;;;;2.59;56.27;102730.66;5020167;28;20044;-68
2022/11/13 06:21:35;;;;;;;8.65;5.78;;;;;;;2.43;56.31;102732.00;5021868;28;20122;-69
2022/11/13 06:24:20;;;;;;;10.63;5.72;;;;;;;2.45;56.73;102726.88;5022759;28;20099;-69
2022/11/13 06:27:03;;;;;;;9.45;5.50;;;;;;;2.47;56.57;102725.22;5020931;28;20470;-71
2022/11/13 06:29:47;;;;;;;9.23;5.97;;;;;;;2.59;56.29;102729.78;5019942;28;20085;-70
2022/11/13 06:32:31;;;;;;;8.48;6.00;;;;;;;2.59;56.17;102733.22;5019777;28;20489;-71
2022/11/13 06:35:15;;;;;;;10.32;6.65;;;;;;;2.53;56.19;102728.81;5021037;28;20414;-71
2022/11/13 06:38:00;;;;;;;7.63;5.78;;;;;;;2.52;56.49;102723.59;5022192;28;20036;-71
2022/11/13 06:40:44;;;;;;;11.27;6.43;;;;;;;2.58;56.71;102728.91;5008096;28;20421;-70
2022/11/13 06:43:28;;;;;;;8.57;5.15;;;;;;;2.56;56.70;102717.69;5021040;28;20075;-71
2022/11/13 06:46:15;;;;;;;11.32;6.38;;;;;;;2.65;56.71;102710.13;5022548;28;20293;-71
2022/11/13 06:48:59;;;;;;;10.65;5.60;;;;;;;2.57;56.71;102707.38;5020060;28;20052;-68
2022/11/13 06:51:43;;;;;;;9.35;5.97;;;;;;;2.59;56.69;102704.84;5018499;28;20186;-70
2022/11/13 06:54:27;;;;;;;8.98;5.95;;;;;;;2.76;56.49;102708.66;5008366;28;20056;-70
2022/11/13 06:57:11;;;;;;;11.93;6.25;;;;;;;2.78;56.60;102695.81;5008916;28;20048;-71
2022/11/13 06:59:55;;;;;;;12.88;6.70;;;;;;;2.83;56.51;102708.81;5019041;28;20402;-71
2022/11/13 07:02:39;;;;;;;11.15;6.07;;;;;;;2.77;56.38;102705.22;5009916;28;20048;-69
2022/11/13 07:05:23;;;;;;;9.20;5.70;;;;;;;2.76;56.58;102718.13;5019209;28;20051;-70
2022/11/13 07:08:07;;;;;;;10.35;5.65;;;;;;;2.80;56.21;102711.31;5022377;28;20056;-71
2022/11/13 07:10:55;;;;;;;10.85;6.70;;;;;;;2.91;56.14;102709.81;5020942;28;20073;-69
2022/11/13 07:13:40;;;;;;;11.23;7.63;;;;;;;2.91;56.32;102713.31;5018608;28;20076;-69
2022/11/13 07:16:25;;;;;;;11.90;7.20;;;;;;;2.81;56.44;102719.09;5014524;28;20056;-71
2022/11/13 07:19:08;;;;;;;9.50;6.70;;;;;;;2.86;56.33;102714.03;5023238;28;20098;-71
2022/11/13 07:21:52;;;;;;;8.82;6.72;;;;;;;2.86;56.18;102714.91;5019035;28;20059;-71
2022/11/13 07:24:36;;;;;;;10.27;6.38;;;;;;;2.93;56.53;102721.06;5018904;28;20087;-70
2022/11/13 07:27:21;;;;;;;17.65;8.43;;;;;;;2.84;56.23;102718.28;5021242;28;20106;-70
2022/11/13 07:30:05;;;;;;;19.33;9.70;;;;;;;2.86;56.30;102714.91;5020555;28;20096;-70
2022/11/13 07:32:50;;;;;;;19.55;10.55;;;;;;;2.89;56.56;102708.91;5018506;28;20050;-70
2022/11/13 07:35:34;;;;;;;22.25;10.70;;;;;;;2.91;56.36;102708.13;5018398;28;20051;-70
2022/11/13 07:38:18;;;;;;;18.73;11.70;;;;;;;2.94;56.69;102703.03;5020604;28;20044;-71
2022/11/13 07:41:02;;;;;;;17.40;9.88;;;;;;;2.98;56.64;102706.56;5023384;28;20200;-69
2022/11/13 07:43:47;;;;;;;16.55;9.13;;;;;;;3.13;56.95;102703.41;5019328;28;20039;-69
2022/11/13 07:46:31;;;;;;;13.88;8.77;;;;;;;3.48;57.13;102700.69;5022026;28;20162;-69
2022/11/13 07:49:15;;;;;;;15.43;8.95;;;;;;;3.88;56.23;102694.50;5019806;28;20350;-71
2022/11/13 07:51:59;;;;;;;17.15;10.43;;;;;;;4.15;55.82;102701.00;5021060;28;20047;-72
2022/11/13 07:54:43;;;;;;;15.35;10.65;;;;;;;5.07;53.88;102691.09;5020708;28;20129;-70
2022/11/13 07:57:27;;;;;;;14.77;9.57;;;;;;;6.36;52.90;102697.53;5021576;28;20454;-70
2022/11/13 08:00:11;;;;;;;16.55;9.75;;;;;;;7.18;49.81;102691.91;5016821;28;20052;-71
2022/11/13 08:02:55;;;;;;;13.80;8.45;;;;;;;7.12;49.25;102689.25;5018393;28;20233;-71
2022/11/13 08:05:40;;;;;;;18.60;10.38;;;;;;;7.15;50.12;102691.88;5017139;28;20111;-71
2022/11/13 08:08:24;;;;;;;17.20;8.52;;;;;;;7.54;48.63;102685.03;5010353;28;20061;-71
2022/11/13 08:11:08;;;;;;;18.27;7.25;;;;;;;8.47;47.85;102685.91;5020537;28;20388;-70
2022/11/13 08:13:53;;;;;;;12.43;7.95;;;;;;;9.54;44.70;102680.25;5005151;28;20145;-71
2022/11/13 08:16:37;;;;;;;9.05;6.32;;;;;;;10.39;42.20;102677.81;5018849;28;20131;-70
2022/11/13 08:19:21;;;;;;;7.85;5.07;;;;;;;10.56;40.84;102675.00;5018058;28;20404;-70
2022/11/13 08:22:05;;;;;;;10.15;6.22;;;;;;;10.80;40.09;102657.28;5018745;28;20052;-71
2022/11/13 08:24:52;;;;;;;11.98;6.57;;;;;;;10.97;40.07;102659.72;5018937;28;20604;-71
2022/11/13 08:27:37;;;;;;;13.40;6.82;;;;;;;11.02;38.69;102657.91;5019729;28;20537;-71
2022/11/13 08:30:22;;;;;;;10.30;6.70;;;;;;;10.94;39.91;102660.63;5013147;28;20183;-71
2022/11/13 08:33:06;;;;;;;10.52;6.18;;;;;;;10.98;39.33;102664.94;5025883;28;20072;-71
2022/11/13 08:35:52;;;;;;;9.88;6.15;;;;;;;10.89;38.45;102661.56;5020046;28;20060;-73
2022/11/13 08:38:36;;;;;;;10.07;5.97;;;;;;;10.80;40.19;102662.53;5015143;28;20048;-71
2022/11/13 08:41:20;;;;;;;9.13;5.85;;;;;;;10.91;40.28;102658.06;5018823;28;20316;-71
2022/11/13 08:44:04;;;;;;;7.20;5.90;;;;;;;11.16;39.94;102662.94;5018584;28;20133;-70
2022/11/13 08:46:48;;;;;;;11.00;6.85;;;;;;;11.45;39.88;102660.75;5018996;28;20076;-71
2022/11/13 08:49:32;;;;;;;11.05;6.90;;;;;;;11.73;38.31;102657.72;5006858;28;20183;-70
2022/11/13 08:52:16;;;;;;;11.55;6.97;;;;;;;11.27;39.62;102660.19;5019978;28;20142;-72
2022/11/13 08:55:00;;;;;;;8.85;5.97;;;;;;;10.98;40.38;102662.31;5009655;28;20426;-71
2022/11/13 08:57:44;;;;;;;9.65;7.35;;;;;;;10.57;40.93;102663.66;5019860;28;20051;-72
2022/11/13 09:00:31;;;;;;;7.28;5.72;;;;;;;10.70;40.26;102651.28;5016642;28;20140;-72
2022/11/13 09:03:15;;;;;;;11.10;7.38;;;;;;;10.42;41.14;102650.75;5018719;28;20337;-72
2022/11/13 09:05:59;;;;;;;12.20;7.53;;;;;;;10.14;42.72;102656.25;5018707;28;20091;-70
2022/11/13 09:08:44;;;;;;;14.63;6.75;;;;;;;9.98;42.01;102657.28;5000668;28;20096;-71
2022/11/13 09:11:28;;;;;;;9.90;6.90;;;;;;;9.97;41.80;102659.06;5009976;28;20056;-71
2022/11/13 09:14:12;;;;;;;11.00;7.47;;;;;;;9.83;42.36;102647.84;5016336;28;20118;-71
2022/11/13 09:16:56;;;;;;;7.93;6.57;;;;;;;9.84;42.64;102654.81;5001674;28;20296;-72
2022/11/13 09:19:40;;;;;;;9.55;6.18;;;;;;;10.09;41.66;102657.19;5004553;28;20052;-72
2022/11/13 09:22:24;;;;;;;11.60;6.40;;;;;;;9.68;43.04;102654.03;5013529;28;20582;-73
2022/11/13 09:25:08;;;;;;;9.52;6.05;;;;;;;9.40;43.66;102646.41;5014279;28;20071;-72
2022/11/13 09:27:54;;;;;;;10.43;6.05;;;;;;;9.53;44.16;102635.88;5015898;28;20088;-70
2022/11/13 09:30:39;;;;;;;11.45;7.18;;;;;;;9.57;43.83;102635.84;5013614;28;20044;-71
2022/11/13 09:33:23;;;;;;;11.10;7.35;;;;;;;9.79;43.70;102639.19;5002196;28;20080;-72
2022/11/13 09:36:13;;;;;;;13.68;7.03;;;;;;;9.90;43.66;102632.97;5015552;28;20477;-71
2022/11/13 09:38:58;;;;;;;13.55;7.40;;;;;;;10.31;42.51;102631.72;5000061;28;20071;-71
2022/11/13 09:41:48;;;;;;;10.20;7.15;;;;;;;9.92;43.26;102628.63;5014938;28;20446;-73
2022/11/13 09:44:52;;;;;;;12.70;7.82;;;;;;;9.75;43.43;102634.81;5015998;28;20128;-71
2022/11/13 09:47:41;;;;;;;12.88;7.30;;;;;;;9.90;44.06;102635.59;5002835;28;20323;-72
2022/11/13 09:50:28;;;;;;;16.13;8.65;;;;;;;10.08;43.59;102630.22;5015939;28;20089;-71
2022/11/13 09:53:13;;;;;;;13.07;8.15;;;;;;;9.83;43.27;102634.78;5016594;28;20357;-71
2022/11/13 09:56:23;;;;;;;12.77;7.97;;;;;;;10.06;43.03;102626.75;5016105;28;20098;-71
2022/11/13 09:59:35;;;;;;;11.48;7.60;;;;;;;10.22;42.84;102623.09;5021961;28;20380;-69
2022/11/13 10:02:26;;;;;;;11.95;7.13;;;;;;;10.55;42.90;102622.75;5020618;28;20067;-71
2022/11/13 10:05:25;;;;;;;9.27;6.97;;;;;;;10.52;41.02;102621.00;5018648;28;20044;-71
2022/11/13 10:08:16;;;;;;;12.07;7.50;;;;;;;10.51;41.75;102610.59;5023824;28;20052;-71
2022/11/13 10:11:13;;;;;;;11.18;7.20;;;;;;;10.62;42.41;102614.78;5019041;28;20072;-72
2022/11/13 10:14:02;;;;;;;13.57;7.13;;;;;;;10.40;41.33;102611.56;5018493;28;20055;-71
2022/11/13 10:17:35;;;;;;;17.27;7.55;;;;;;;10.48;41.56;102619.34;5017241;28;20271;-72
2022/11/13 10:20:28;;;;;;;9.57;7.00;;;;;;;9.93;43.01;102614.69;4961008;28;20225;-72
2022/11/13 10:23:20;;;;;;;12.45;7.93;;;;;;;9.85;43.70;102613.88;5021433;28;20370;-71
2022/11/13 10:26:15;;;;;;;11.48;7.45;;;;;;;10.20;43.39;102614.41;5019356;28;20048;-72
2022/11/13 10:29:05;;;;;;;15.95;8.25;;;;;;;10.75;42.95;102617.22;5016551;28;20987;-72
2022/11/13 10:31:51;;;;;;;18.13;8.40;;;;;;;11.25;42.27;102616.56;5018839;28;20100;-72
2022/11/13 10:34:35;;;;;;;8.75;5.93;;;;;;;11.33;40.32;102606.00;5016875;28;20115;-71
2022/11/13 10:37:31;;;;;;;13.45;6.80;;;;;;;10.89;41.44;102612.72;5020562;28;20072;-72
2022/11/13 10:40:26;;;;;;;11.52;8.10;;;;;;;11.16;40.66;102597.53;5017304;28;20438;-72
2022/11/13 10:43:19;;;;;;;11.43;7.38;;;;;;;11.03;39.39;102595.06;5010356;28;20384;-73
2022/11/13 10:46:04;;;;;;;9.27;7.55;;;;;;;11.37;40.26;102596.31;5024185;28;20049;-70
2022/11/13 10:48:48;;;;;;;10.07;7.80;;;;;;;11.46;40.19;102591.81;5007741;28;20083;-73
2022/11/13 10:51:35;;;;;;;9.77;7.43;;;;;;;11.42;40.42;102584.03;5019371;28;20278;-72
2022/11/13 10:54:29;;;;;;;11.75;6.93;;;;;;;11.44;39.26;102577.00;5018842;28;20299;-71
2022/11/13 10:57:32;;;;;;;26.95;12.30;;;;;;;11.62;39.94;102575.81;5019496;28;20048;-72
2022/11/13 11:00:31;;;;;;;15.13;8.07;;;;;;;11.79;38.48;102578.19;5017919;28;20051;-70
2022/11/13 11:03:19;;;;;;;12.15;7.43;;;;;;;12.01;39.26;102576.03;5017833;28;20126;-71
2022/11/13 11:06:04;;;;;;;12.25;7.95;;;;;;;12.19;39.55;102566.94;5020391;28;20115;-72
2022/11/13 11:08:48;;;;;;;9.95;7.53;;;;;;;12.11;38.63;102564.50;5018019;28;20166;-70
2022/11/13 11:14:50;;;;;;;9.35;6.53;;;;;;;11.73;39.99;102562.53;5016912;28;20060;-72
2022/11/13 11:17:47;;;;;;;9.90;6.65;;;;;;;11.95;38.95;102563.91;5019398;28;20052;-71
2022/11/13 11:20:37;;;;;;;11.65;6.90;;;;;;;11.99;39.55;102562.09;5009005;28;20171;-70
2022/11/13 11:23:51;;;;;;;11.38;7.35;;;;;;;11.78;40.39;102558.13;5020010;28;20327;-70
2022/11/13 11:26:55;;;;;;;11.38;7.38;;;;;;;11.00;40.34;102553.28;5016547;28;20060;-71
2022/11/13 11:29:55;;;;;;;12.52;8.00;;;;;;;10.85;41.06;102548.25;5017405;28;20134;-71
2022/11/13 11:32:45;;;;;;;12.27;7.97;;;;;;;10.40;41.93;102553.19;5011268;28;20056;-71
2022/11/13 11:35:44;;;;;;;11.23;7.63;;;;;;;10.32;42.76;102555.03;5019367;28;20045;-71
2022/11/13 11:38:59;;;;;;;9.93;7.00;;;;;;;10.41;42.42;102544.47;5016682;28;20072;-71
2022/11/13 11:42:14;;;;;;;8.98;6.18;;;;;;;10.50;42.47;102539.09;5018910;28;20546;-72
2022/11/13 11:45:03;;;;;;;11.25;7.53;;;;;;;10.36;42.56;102533.22;5017828;28;20095;-73
2022/11/13 11:47:48;;;;;;;10.85;7.15;;;;;;;10.25;43.13;102528.09;5018816;28;20293;-70
2022/11/13 11:50:50;;;;;;;11.35;7.00;;;;;;;10.05;42.66;102528.34;5017585;28;20048;-68
2022/11/13 11:54:02;;;;;;;10.90;7.13;;;;;;;10.06;43.73;102519.63;5018526;28;20127;-68
2022/11/13 11:56:56;;;;;;;11.82;6.63;;;;;;;10.41;43.35;102513.97;5020605;28;20456;-71
2022/11/13 12:00:00;;;;;;;9.95;6.35;;;;;;;10.33;42.08;102517.56;5018505;28;20148;-72
2022/11/13 12:03:06;;;;;;;12.95;7.18;;;;;;;10.36;42.83;102513.16;5005350;28;20473;-71
2022/11/13 12:05:56;;;;;;;8.27;6.55;;;;;;;10.33;42.88;102512.34;5017371;28;20164;-71
2022/11/13 12:09:07;;;;;;;7.40;6.15;;;;;;;10.58;42.69;102505.88;5015640;28;20063;-70
2022/11/13 12:11:57;;;;;;;10.73;6.20;;;;;;;10.53;42.37;102512.09;5017614;28;20190;-71
2022/11/13 12:15:00;;;;;;;11.77;7.57;;;;;;;10.52;42.59;102503.34;5016384;28;20047;-70
2022/11/13 12:18:09;;;;;;;9.40;6.22;;;;;;;10.36;42.68;102499.22;5016428;28;20087;-71
2022/11/13 12:21:02;;;;;;;9.38;6.05;;;;;;;10.36;42.67;102499.22;5015941;28;20625;-71
2022/11/13 12:23:53;;;;;;;10.77;7.30;;;;;;;10.43;42.12;102487.81;5016371;28;20516;-71
2022/11/13 12:26:58;;;;;;;10.30;6.95;;;;;;;10.50;42.51;102489.44;5016391;28;20438;-71
2022/11/13 12:30:00;;;;;;;9.88;6.03;;;;;;;10.16;41.62;102481.19;5015080;28;20110;-70
2022/11/13 12:33:01;;;;;;;10.93;6.25;;;;;;;10.05;41.66;102481.31;5015521;28;20737;-71
2022/11/13 12:35:48;;;;;;;10.43;6.65;;;;;;;10.14;40.65;102475.97;5016035;28;20532;-70
2022/11/13 12:38:47;;;;;;;14.98;6.90;;;;;;;10.32;40.48;102476.63;5014163;28;20056;-71
2022/11/13 12:41:37;;;;;;;13.38;8.38;;;;;;;10.50;40.20;102480.75;5017472;28;20440;-70
2022/11/13 12:44:27;;;;;;;11.70;6.55;;;;;;;10.69;39.92;102478.72;5017123;28;20124;-71
2022/11/13 12:47:12;;;;;;;12.10;7.22;;;;;;;10.82;39.89;102477.69;5017882;28;20131;-70
2022/11/13 12:50:03;;;;;;;7.78;6.32;;;;;;;11.03;38.96;102477.34;5014455;28;20524;-71
2022/11/13 12:53:23;;;;;;;11.23;6.20;;;;;;;11.30;39.44;102469.03;5015666;28;20202;-71
2022/11/13 12:56:13;;;;;;;9.88;6.03;;;;;;;11.78;38.78;102462.06;5018144;28;20119;-70
2022/11/13 12:59:10;;;;;;;7.70;5.93;;;;;;;12.05;37.00;102452.78;5016184;28;20123;-70
2022/11/13 13:02:12;;;;;;;7.25;5.63;;;;;;;11.94;37.11;102451.28;5019259;28;20047;-70